sensor_id;sensor_type;location;lat;lon;timestamp;P1;durP1;ratioP1;P2;durP2;ratioP2
10945;SDS011;5525;42.648;23.368;2023-07-20T00:01:32;7.45;;;2.45;;
10945;SDS011;5525;42.648;23.368;2023-07-20T00:04:00;7.78;;;2.83;;
10945;SDS011;5525;42.648;23.368;2023-07-20T00:06:27;5.93;;;2.33;;
10945;SDS011;5525;42.648;23.368;2023-07-20T00:08:54;6.00;;;2.45;;
10945;SDS011;5525;42.648;23.368;2023-07-20T00:11:20;6.53;;;2.88;;
10945;SDS011;5525;42.648;23.368;2023-07-20T00:13:47;5.38;;;2.60;;
10945;SDS011;5525;42.648;23.368;2023-07-20T00:16:15;7.03;;;2.65;;
10945;SDS011;5525;42.648;23.368;2023-07-20T00:18:42;5.85;;;2.55;;
10945;SDS011;5525;42.648;23.368;2023-07-20T00:21:08;4.80;;;2.78;;
10945;SDS011;5525;42.648;23.368;2023-07-20T00:23:35;7.57;;;3.13;;
10945;SDS011;5525;42.648;23.368;2023-07-20T00:26:02;5.93;;;2.90;;
10945;SDS011;5525;42.648;23.368;2023-07-20T00:28:29;4.30;;;2.63;;
10945;SDS011;5525;42.648;23.368;2023-07-20T00:30:55;6.82;;;2.65;;
10945;SDS011;5525;42.648;23.368;2023-07-20T00:33:23;7.57;;;3.08;;
10945;SDS011;5525;42.648;23.368;2023-07-20T00:35:50;9.30;;;3.08;;
10945;SDS011;5525;42.648;23.368;2023-07-20T00:38:17;5.70;;;2.95;;
10945;SDS011;5525;42.648;23.368;2023-07-20T00:40:44;8.15;;;3.28;;
10945;SDS011;5525;42.648;23.368;2023-07-20T00:43:11;8.82;;;3.65;;
10945;SDS011;5525;42.648;23.368;2023-07-20T00:45:37;7.55;;;2.85;;
10945;SDS011;5525;42.648;23.368;2023-07-20T00:48:05;4.57;;;2.80;;
10945;SDS011;5525;42.648;23.368;2023-07-20T00:50:34;7.45;;;3.10;;
10945;SDS011;5525;42.648;23.368;2023-07-20T00:53:02;5.50;;;2.95;;
10945;SDS011;5525;42.648;23.368;2023-07-20T00:55:31;6.68;;;3.20;;
10945;SDS011;5525;42.648;23.368;2023-07-20T00:57:57;6.30;;;3.05;;
10945;SDS011;5525;42.648;23.368;2023-07-20T01:00:25;5.70;;;2.95;;
10945;SDS011;5525;42.648;23.368;2023-07-20T01:02:52;6.10;;;2.95;;
10945;SDS011;5525;42.648;23.368;2023-07-20T01:05:19;5.35;;;3.05;;
10945;SDS011;5525;42.648;23.368;2023-07-20T01:07:51;5.20;;;3.13;;
10945;SDS011;5525;42.648;23.368;2023-07-20T01:10:25;5.10;;;2.53;;
10945;SDS011;5525;42.648;23.368;2023-07-20T01:12:55;5.35;;;2.70;;
10945;SDS011;5525;42.648;23.368;2023-07-20T01:15:23;6.53;;;3.08;;
10945;SDS011;5525;42.648;23.368;2023-07-20T01:17:50;5.88;;;2.67;;
10945;SDS011;5525;42.648;23.368;2023-07-20T01:20:18;7.97;;;2.92;;
10945;SDS011;5525;42.648;23.368;2023-07-20T01:23:05;5.50;;;3.13;;
10945;SDS011;5525;42.648;23.368;2023-07-20T01:25:58;7.57;;;3.08;;
10945;SDS011;5525;42.648;23.368;2023-07-20T01:31:59;6.20;;;2.90;;
10945;SDS011;5525;42.648;23.368;2023-07-20T01:34:29;3.78;;;2.80;;
10945;SDS011;5525;42.648;23.368;2023-07-20T01:36:56;8.68;;;2.83;;
10945;SDS011;5525;42.648;23.368;2023-07-20T01:39:24;6.82;;;2.78;;
10945;SDS011;5525;42.648;23.368;2023-07-20T01:41:51;4.35;;;2.40;;
10945;SDS011;5525;42.648;23.368;2023-07-20T01:44:18;6.57;;;2.70;;
10945;SDS011;5525;42.648;23.368;2023-07-20T01:46:44;5.50;;;2.40;;
10945;SDS011;5525;42.648;23.368;2023-07-20T01:49:13;5.72;;;2.28;;
10945;SDS011;5525;42.648;23.368;2023-07-20T01:51:39;8.05;;;3.00;;
10945;SDS011;5525;42.648;23.368;2023-07-20T01:54:06;5.68;;;2.60;;
10945;SDS011;5525;42.648;23.368;2023-07-20T01:56:32;7.03;;;2.50;;
10945;SDS011;5525;42.648;23.368;2023-07-20T01:58:59;5.43;;;2.63;;
10945;SDS011;5525;42.648;23.368;2023-07-20T02:01:26;8.38;;;2.58;;
10945;SDS011;5525;42.648;23.368;2023-07-20T02:03:54;6.25;;;2.80;;
10945;SDS011;5525;42.648;23.368;2023-07-20T02:06:22;7.50;;;3.05;;
10945;SDS011;5525;42.648;23.368;2023-07-20T02:08:49;6.00;;;2.63;;
10945;SDS011;5525;42.648;23.368;2023-07-20T02:11:15;7.10;;;3.13;;
10945;SDS011;5525;42.648;23.368;2023-07-20T02:13:42;6.85;;;2.80;;
10945;SDS011;5525;42.648;23.368;2023-07-20T02:16:09;6.53;;;2.42;;
10945;SDS011;5525;42.648;23.368;2023-07-20T02:18:36;8.93;;;2.60;;
10945;SDS011;5525;42.648;23.368;2023-07-20T02:21:03;6.93;;;2.78;;
10945;SDS011;5525;42.648;23.368;2023-07-20T02:23:31;5.43;;;2.55;;
10945;SDS011;5525;42.648;23.368;2023-07-20T02:25:57;8.15;;;2.85;;
10945;SDS011;5525;42.648;23.368;2023-07-20T02:28:24;6.15;;;2.95;;
10945;SDS011;5525;42.648;23.368;2023-07-20T02:30:51;7.30;;;3.03;;
10945;SDS011;5525;42.648;23.368;2023-07-20T02:33:18;6.40;;;2.65;;
10945;SDS011;5525;42.648;23.368;2023-07-20T02:35:45;6.65;;;2.78;;
10945;SDS011;5525;42.648;23.368;2023-07-20T02:38:12;7.65;;;3.00;;
10945;SDS011;5525;42.648;23.368;2023-07-20T02:40:40;6.43;;;3.10;;
10945;SDS011;5525;42.648;23.368;2023-07-20T02:43:07;8.48;;;3.15;;
10945;SDS011;5525;42.648;23.368;2023-07-20T02:45:34;5.05;;;3.08;;
10945;SDS011;5525;42.648;23.368;2023-07-20T02:48:01;10.00;;;4.18;;
10945;SDS011;5525;42.648;23.368;2023-07-20T02:50:28;6.40;;;2.63;;
10945;SDS011;5525;42.648;23.368;2023-07-20T02:52:55;6.65;;;3.33;;
10945;SDS011;5525;42.648;23.368;2023-07-20T02:55:21;6.32;;;3.38;;
10945;SDS011;5525;42.648;23.368;2023-07-20T02:57:50;7.00;;;3.45;;
10945;SDS011;5525;42.648;23.368;2023-07-20T03:00:16;5.28;;;3.35;;
10945;SDS011;5525;42.648;23.368;2023-07-20T03:02:44;7.78;;;3.10;;
10945;SDS011;5525;42.648;23.368;2023-07-20T03:05:12;5.90;;;3.40;;
10945;SDS011;5525;42.648;23.368;2023-07-20T03:07:39;7.28;;;3.35;;
10945;SDS011;5525;42.648;23.368;2023-07-20T03:10:08;5.47;;;2.85;;
10945;SDS011;5525;42.648;23.368;2023-07-20T03:12:36;8.13;;;3.60;;
10945;SDS011;5525;42.648;23.368;2023-07-20T03:15:04;8.85;;;3.55;;
10945;SDS011;5525;42.648;23.368;2023-07-20T03:17:32;9.68;;;3.55;;
10945;SDS011;5525;42.648;23.368;2023-07-20T03:19:59;8.98;;;3.53;;
10945;SDS011;5525;42.648;23.368;2023-07-20T03:22:25;6.47;;;3.75;;
10945;SDS011;5525;42.648;23.368;2023-07-20T03:24:52;8.80;;;3.53;;
10945;SDS011;5525;42.648;23.368;2023-07-20T03:27:19;5.38;;;3.22;;
10945;SDS011;5525;42.648;23.368;2023-07-20T03:29:46;10.82;;;3.72;;
10945;SDS011;5525;42.648;23.368;2023-07-20T03:32:13;11.90;;;3.25;;
10945;SDS011;5525;42.648;23.368;2023-07-20T03:34:40;8.25;;;3.38;;
10945;SDS011;5525;42.648;23.368;2023-07-20T03:37:07;5.97;;;3.35;;
10945;SDS011;5525;42.648;23.368;2023-07-20T03:39:33;8.00;;;3.58;;
10945;SDS011;5525;42.648;23.368;2023-07-20T03:42:00;7.20;;;3.42;;
10945;SDS011;5525;42.648;23.368;2023-07-20T03:44:27;6.80;;;3.40;;
10945;SDS011;5525;42.648;23.368;2023-07-20T03:46:54;9.40;;;3.72;;
10945;SDS011;5525;42.648;23.368;2023-07-20T03:49:22;7.53;;;2.88;;
10945;SDS011;5525;42.648;23.368;2023-07-20T03:51:49;6.93;;;3.35;;
10945;SDS011;5525;42.648;23.368;2023-07-20T03:54:15;7.57;;;3.67;;
10945;SDS011;5525;42.648;23.368;2023-07-20T03:56:42;8.73;;;3.50;;
10945;SDS011;5525;42.648;23.368;2023-07-20T03:59:09;8.95;;;3.83;;
10945;SDS011;5525;42.648;23.368;2023-07-20T04:01:35;8.07;;;3.58;;
10945;SDS011;5525;42.648;23.368;2023-07-20T04:04:04;11.75;;;3.60;;
10945;SDS011;5525;42.648;23.368;2023-07-20T04:06:34;9.15;;;3.40;;
10945;SDS011;5525;42.648;23.368;2023-07-20T04:09:01;9.13;;;3.50;;
10945;SDS011;5525;42.648;23.368;2023-07-20T04:11:29;7.22;;;3.20;;
10945;SDS011;5525;42.648;23.368;2023-07-20T04:13:56;13.35;;;3.80;;
10945;SDS011;5525;42.648;23.368;2023-07-20T04:16:23;9.48;;;3.67;;
10945;SDS011;5525;42.648;23.368;2023-07-20T04:18:49;6.10;;;3.97;;
10945;SDS011;5525;42.648;23.368;2023-07-20T04:21:16;9.88;;;4.10;;
10945;SDS011;5525;42.648;23.368;2023-07-20T04:23:44;6.07;;;3.83;;
10945;SDS011;5525;42.648;23.368;2023-07-20T04:26:11;7.40;;;3.40;;
10945;SDS011;5525;42.648;23.368;2023-07-20T04:28:39;10.02;;;3.40;;
10945;SDS011;5525;42.648;23.368;2023-07-20T04:31:10;7.95;;;3.90;;
10945;SDS011;5525;42.648;23.368;2023-07-20T04:33:37;8.65;;;3.72;;
10945;SDS011;5525;42.648;23.368;2023-07-20T04:36:04;7.15;;;3.90;;
10945;SDS011;5525;42.648;23.368;2023-07-20T04:38:31;6.85;;;3.70;;
10945;SDS011;5525;42.648;23.368;2023-07-20T04:40:59;9.95;;;3.97;;
10945;SDS011;5525;42.648;23.368;2023-07-20T04:43:26;7.80;;;4.07;;
10945;SDS011;5525;42.648;23.368;2023-07-20T04:45:55;11.65;;;4.22;;
10945;SDS011;5525;42.648;23.368;2023-07-20T04:48:21;8.60;;;4.25;;
10945;SDS011;5525;42.648;23.368;2023-07-20T04:50:48;9.85;;;4.65;;
10945;SDS011;5525;42.648;23.368;2023-07-20T04:53:15;12.60;;;4.55;;
10945;SDS011;5525;42.648;23.368;2023-07-20T04:55:46;6.32;;;3.95;;
10945;SDS011;5525;42.648;23.368;2023-07-20T04:58:16;7.60;;;3.85;;
10945;SDS011;5525;42.648;23.368;2023-07-20T05:00:43;7.22;;;4.00;;
10945;SDS011;5525;42.648;23.368;2023-07-20T05:03:10;6.00;;;4.00;;
10945;SDS011;5525;42.648;23.368;2023-07-20T05:05:37;7.43;;;4.45;;
10945;SDS011;5525;42.648;23.368;2023-07-20T05:08:04;7.10;;;4.05;;
10945;SDS011;5525;42.648;23.368;2023-07-20T05:10:31;8.23;;;4.30;;
10945;SDS011;5525;42.648;23.368;2023-07-20T05:12:58;11.95;;;3.90;;
10945;SDS011;5525;42.648;23.368;2023-07-20T05:15:26;8.32;;;3.90;;
10945;SDS011;5525;42.648;23.368;2023-07-20T05:17:52;14.85;;;4.55;;
10945;SDS011;5525;42.648;23.368;2023-07-20T05:20:19;18.77;;;3.92;;
10945;SDS011;5525;42.648;23.368;2023-07-20T05:22:46;6.90;;;3.53;;
10945;SDS011;5525;42.648;23.368;2023-07-20T05:25:13;5.38;;;3.40;;
10945;SDS011;5525;42.648;23.368;2023-07-20T05:27:42;7.22;;;3.72;;
10945;SDS011;5525;42.648;23.368;2023-07-20T05:30:09;6.85;;;3.60;;
10945;SDS011;5525;42.648;23.368;2023-07-20T05:32:38;5.13;;;3.50;;
10945;SDS011;5525;42.648;23.368;2023-07-20T05:35:07;7.22;;;3.83;;
10945;SDS011;5525;42.648;23.368;2023-07-20T05:37:36;7.10;;;3.47;;
10945;SDS011;5525;42.648;23.368;2023-07-20T05:40:03;7.60;;;3.13;;
10945;SDS011;5525;42.648;23.368;2023-07-20T05:42:31;7.93;;;4.07;;
10945;SDS011;5525;42.648;23.368;2023-07-20T05:44:59;7.85;;;3.70;;
10945;SDS011;5525;42.648;23.368;2023-07-20T05:47:26;7.95;;;3.83;;
10945;SDS011;5525;42.648;23.368;2023-07-20T05:49:54;13.65;;;4.07;;
10945;SDS011;5525;42.648;23.368;2023-07-20T05:52:21;7.68;;;3.53;;
10945;SDS011;5525;42.648;23.368;2023-07-20T05:54:47;20.20;;;4.55;;
10945;SDS011;5525;42.648;23.368;2023-07-20T05:57:14;9.50;;;4.47;;
10945;SDS011;5525;42.648;23.368;2023-07-20T05:59:41;8.88;;;4.05;;
10945;SDS011;5525;42.648;23.368;2023-07-20T06:02:09;9.48;;;4.05;;
10945;SDS011;5525;42.648;23.368;2023-07-20T06:04:36;12.98;;;3.67;;
10945;SDS011;5525;42.648;23.368;2023-07-20T06:07:04;10.00;;;4.00;;
10945;SDS011;5525;42.648;23.368;2023-07-20T06:09:32;9.30;;;3.72;;
10945;SDS011;5525;42.648;23.368;2023-07-20T06:12:00;7.53;;;4.18;;
10945;SDS011;5525;42.648;23.368;2023-07-20T06:14:26;10.80;;;3.70;;
10945;SDS011;5525;42.648;23.368;2023-07-20T06:16:53;8.48;;;3.53;;
10945;SDS011;5525;42.648;23.368;2023-07-20T06:19:20;11.48;;;4.57;;
10945;SDS011;5525;42.648;23.368;2023-07-20T06:21:47;9.30;;;4.30;;
10945;SDS011;5525;42.648;23.368;2023-07-20T06:24:16;8.43;;;4.32;;
10945;SDS011;5525;42.648;23.368;2023-07-20T06:26:42;8.85;;;3.60;;
10945;SDS011;5525;42.648;23.368;2023-07-20T06:29:09;7.90;;;3.78;;
10945;SDS011;5525;42.648;23.368;2023-07-20T06:31:36;10.25;;;4.47;;
10945;SDS011;5525;42.648;23.368;2023-07-20T06:34:03;7.60;;;3.72;;
10945;SDS011;5525;42.648;23.368;2023-07-20T06:36:30;7.53;;;3.78;;
10945;SDS011;5525;42.648;23.368;2023-07-20T06:38:56;14.63;;;5.55;;
10945;SDS011;5525;42.648;23.368;2023-07-20T06:41:24;8.07;;;3.80;;
10945;SDS011;5525;42.648;23.368;2023-07-20T06:43:51;13.32;;;4.22;;
10945;SDS011;5525;42.648;23.368;2023-07-20T06:46:23;11.23;;;4.20;;
10945;SDS011;5525;42.648;23.368;2023-07-20T06:48:50;10.55;;;3.75;;
10945;SDS011;5525;42.648;23.368;2023-07-20T06:51:16;7.90;;;3.65;;
10945;SDS011;5525;42.648;23.368;2023-07-20T06:53:43;5.05;;;4.10;;
10945;SDS011;5525;42.648;23.368;2023-07-20T06:56:09;12.02;;;3.80;;
10945;SDS011;5525;42.648;23.368;2023-07-20T06:58:37;9.93;;;3.90;;
10945;SDS011;5525;42.648;23.368;2023-07-20T07:01:04;7.13;;;3.85;;
10945;SDS011;5525;42.648;23.368;2023-07-20T07:03:32;9.85;;;4.47;;
10945;SDS011;5525;42.648;23.368;2023-07-20T07:05:59;10.40;;;3.78;;
10945;SDS011;5525;42.648;23.368;2023-07-20T07:08:25;8.00;;;4.05;;
10945;SDS011;5525;42.648;23.368;2023-07-20T07:10:52;8.40;;;3.92;;
10945;SDS011;5525;42.648;23.368;2023-07-20T07:13:19;19.63;;;4.65;;
10945;SDS011;5525;42.648;23.368;2023-07-20T07:15:47;10.23;;;4.47;;
10945;SDS011;5525;42.648;23.368;2023-07-20T07:18:14;12.23;;;4.55;;
10945;SDS011;5525;42.648;23.368;2023-07-20T07:20:40;9.10;;;4.43;;
10945;SDS011;5525;42.648;23.368;2023-07-20T07:23:07;12.07;;;4.15;;
10945;SDS011;5525;42.648;23.368;2023-07-20T07:25:33;9.07;;;4.57;;
10945;SDS011;5525;42.648;23.368;2023-07-20T07:28:00;9.93;;;4.03;;
10945;SDS011;5525;42.648;23.368;2023-07-20T07:30:27;12.57;;;4.25;;
10945;SDS011;5525;42.648;23.368;2023-07-20T07:32:55;8.63;;;3.85;;
10945;SDS011;5525;42.648;23.368;2023-07-20T07:35:21;13.68;;;7.25;;
10945;SDS011;5525;42.648;23.368;2023-07-20T07:37:48;13.07;;;5.20;;
10945;SDS011;5525;42.648;23.368;2023-07-20T07:40:15;9.35;;;5.20;;
10945;SDS011;5525;42.648;23.368;2023-07-20T07:42:41;9.38;;;5.05;;
10945;SDS011;5525;42.648;23.368;2023-07-20T07:45:09;15.45;;;5.22;;
10945;SDS011;5525;42.648;23.368;2023-07-20T07:47:36;9.15;;;4.50;;
10945;SDS011;5525;42.648;23.368;2023-07-20T07:50:04;8.48;;;4.55;;
10945;SDS011;5525;42.648;23.368;2023-07-20T07:52:32;11.57;;;4.90;;
10945;SDS011;5525;42.648;23.368;2023-07-20T07:54:58;10.57;;;5.03;;
10945;SDS011;5525;42.648;23.368;2023-07-20T07:57:25;7.88;;;4.38;;
10945;SDS011;5525;42.648;23.368;2023-07-20T07:59:52;8.75;;;4.47;;
10945;SDS011;5525;42.648;23.368;2023-07-20T08:02:18;13.43;;;4.93;;
10945;SDS011;5525;42.648;23.368;2023-07-20T08:04:46;8.38;;;4.40;;
10945;SDS011;5525;42.648;23.368;2023-07-20T08:07:14;15.02;;;4.65;;
10945;SDS011;5525;42.648;23.368;2023-07-20T08:09:41;11.13;;;4.13;;
10945;SDS011;5525;42.648;23.368;2023-07-20T08:12:07;12.85;;;5.22;;
10945;SDS011;5525;42.648;23.368;2023-07-20T08:14:34;12.13;;;4.80;;
10945;SDS011;5525;42.648;23.368;2023-07-20T08:17:01;11.93;;;4.40;;
10945;SDS011;5525;42.648;23.368;2023-07-20T08:19:28;13.88;;;4.13;;
10945;SDS011;5525;42.648;23.368;2023-07-20T08:21:54;12.40;;;4.57;;
10945;SDS011;5525;42.648;23.368;2023-07-20T08:24:22;11.07;;;4.70;;
10945;SDS011;5525;42.648;23.368;2023-07-20T08:26:49;9.35;;;4.45;;
10945;SDS011;5525;42.648;23.368;2023-07-20T08:29:16;9.13;;;4.38;;
10945;SDS011;5525;42.648;23.368;2023-07-20T08:31:42;11.25;;;4.43;;
10945;SDS011;5525;42.648;23.368;2023-07-20T08:34:09;8.05;;;3.80;;
10945;SDS011;5525;42.648;23.368;2023-07-20T08:36:36;11.00;;;4.18;;
10945;SDS011;5525;42.648;23.368;2023-07-20T08:39:02;11.02;;;3.50;;
10945;SDS011;5525;42.648;23.368;2023-07-20T08:41:30;7.75;;;3.60;;
10945;SDS011;5525;42.648;23.368;2023-07-20T08:43:57;8.00;;;3.58;;
10945;SDS011;5525;42.648;23.368;2023-07-20T08:46:25;11.40;;;3.10;;
10945;SDS011;5525;42.648;23.368;2023-07-20T08:48:53;6.28;;;3.17;;
10945;SDS011;5525;42.648;23.368;2023-07-20T08:51:22;8.65;;;3.05;;
10945;SDS011;5525;42.648;23.368;2023-07-20T08:53:51;8.50;;;3.65;;
10945;SDS011;5525;42.648;23.368;2023-07-20T08:56:18;6.50;;;3.05;;
10945;SDS011;5525;42.648;23.368;2023-07-20T08:58:48;10.15;;;3.80;;
10945;SDS011;5525;42.648;23.368;2023-07-20T09:01:15;11.40;;;3.00;;
10945;SDS011;5525;42.648;23.368;2023-07-20T09:03:45;7.57;;;2.75;;
10945;SDS011;5525;42.648;23.368;2023-07-20T09:06:12;7.72;;;2.70;;
10945;SDS011;5525;42.648;23.368;2023-07-20T09:08:38;7.95;;;2.90;;
10945;SDS011;5525;42.648;23.368;2023-07-20T09:11:06;5.82;;;2.72;;
10945;SDS011;5525;42.648;23.368;2023-07-20T09:13:32;6.43;;;2.80;;
10945;SDS011;5525;42.648;23.368;2023-07-20T09:16:01;5.43;;;2.45;;
10945;SDS011;5525;42.648;23.368;2023-07-20T09:18:29;9.48;;;3.10;;
10945;SDS011;5525;42.648;23.368;2023-07-20T09:21:00;8.63;;;3.03;;
10945;SDS011;5525;42.648;23.368;2023-07-20T09:23:31;7.32;;;2.90;;
10945;SDS011;5525;42.648;23.368;2023-07-20T09:25:59;7.28;;;3.10;;
10945;SDS011;5525;42.648;23.368;2023-07-20T09:28:26;7.05;;;2.88;;
10945;SDS011;5525;42.648;23.368;2023-07-20T09:30:54;7.65;;;2.70;;
10945;SDS011;5525;42.648;23.368;2023-07-20T09:33:23;5.28;;;2.90;;
10945;SDS011;5525;42.648;23.368;2023-07-20T09:35:50;9.52;;;2.72;;
10945;SDS011;5525;42.648;23.368;2023-07-20T09:38:17;7.35;;;2.88;;
10945;SDS011;5525;42.648;23.368;2023-07-20T09:40:44;8.98;;;2.58;;
10945;SDS011;5525;42.648;23.368;2023-07-20T09:43:10;8.65;;;2.60;;
10945;SDS011;5525;42.648;23.368;2023-07-20T09:45:39;8.45;;;3.00;;
10945;SDS011;5525;42.648;23.368;2023-07-20T09:48:07;5.93;;;2.70;;
10945;SDS011;5525;42.648;23.368;2023-07-20T09:50:36;6.30;;;2.83;;
10945;SDS011;5525;42.648;23.368;2023-07-20T09:53:06;7.10;;;2.95;;
10945;SDS011;5525;42.648;23.368;2023-07-20T09:55:33;5.82;;;2.90;;
10945;SDS011;5525;42.648;23.368;2023-07-20T09:58:00;6.53;;;3.00;;
10945;SDS011;5525;42.648;23.368;2023-07-20T10:00:29;7.88;;;3.13;;
10945;SDS011;5525;42.648;23.368;2023-07-20T10:02:55;6.38;;;2.80;;
10945;SDS011;5525;42.648;23.368;2023-07-20T10:05:24;9.02;;;2.90;;
10945;SDS011;5525;42.648;23.368;2023-07-20T10:08:00;6.40;;;2.85;;
10945;SDS011;5525;42.648;23.368;2023-07-20T10:10:29;4.85;;;2.60;;
10945;SDS011;5525;42.648;23.368;2023-07-20T10:13:02;7.43;;;2.72;;
10945;SDS011;5525;42.648;23.368;2023-07-20T10:15:32;5.80;;;2.20;;
10945;SDS011;5525;42.648;23.368;2023-07-20T10:18:03;6.97;;;2.70;;
10945;SDS011;5525;42.648;23.368;2023-07-20T10:20:35;6.88;;;2.70;;
10945;SDS011;5525;42.648;23.368;2023-07-20T10:23:04;8.25;;;3.10;;
10945;SDS011;5525;42.648;23.368;2023-07-20T10:25:31;6.03;;;2.55;;
10945;SDS011;5525;42.648;23.368;2023-07-20T10:28:02;7.60;;;2.70;;
10945;SDS011;5525;42.648;23.368;2023-07-20T10:30:30;4.90;;;2.22;;
10945;SDS011;5525;42.648;23.368;2023-07-20T10:32:57;8.05;;;2.83;;
10945;SDS011;5525;42.648;23.368;2023-07-20T10:35:28;5.95;;;2.30;;
10945;SDS011;5525;42.648;23.368;2023-07-20T10:37:59;6.50;;;2.28;;
10945;SDS011;5525;42.648;23.368;2023-07-20T10:40:33;7.10;;;2.55;;
10945;SDS011;5525;42.648;23.368;2023-07-20T10:43:01;7.78;;;2.40;;
10945;SDS011;5525;42.648;23.368;2023-07-20T10:45:33;8.57;;;3.17;;
10945;SDS011;5525;42.648;23.368;2023-07-20T10:48:04;8.25;;;2.38;;
10945;SDS011;5525;42.648;23.368;2023-07-20T10:50:32;5.45;;;2.60;;
10945;SDS011;5525;42.648;23.368;2023-07-20T10:53:09;9.07;;;2.80;;
10945;SDS011;5525;42.648;23.368;2023-07-20T10:55:41;6.85;;;2.85;;
10945;SDS011;5525;42.648;23.368;2023-07-20T10:58:12;6.85;;;3.13;;
10945;SDS011;5525;42.648;23.368;2023-07-20T11:03:28;6.43;;;2.15;;
10945;SDS011;5525;42.648;23.368;2023-07-20T11:05:58;6.03;;;2.63;;
10945;SDS011;5525;42.648;23.368;2023-07-20T11:08:38;5.65;;;2.90;;
10945;SDS011;5525;42.648;23.368;2023-07-20T11:11:25;7.05;;;2.78;;
10945;SDS011;5525;42.648;23.368;2023-07-20T11:13:54;9.18;;;3.03;;
10945;SDS011;5525;42.648;23.368;2023-07-20T11:19:12;8.05;;;3.13;;
10945;SDS011;5525;42.648;23.368;2023-07-20T11:21:41;7.65;;;3.08;;
10945;SDS011;5525;42.648;23.368;2023-07-20T11:24:09;10.82;;;3.30;;
10945;SDS011;5525;42.648;23.368;2023-07-20T11:26:43;8.15;;;3.15;;
10945;SDS011;5525;42.648;23.368;2023-07-20T11:29:12;7.82;;;2.92;;
10945;SDS011;5525;42.648;23.368;2023-07-20T11:31:39;9.15;;;3.00;;
10945;SDS011;5525;42.648;23.368;2023-07-20T11:34:09;6.72;;;3.80;;
10945;SDS011;5525;42.648;23.368;2023-07-20T11:36:38;6.50;;;3.63;;
10945;SDS011;5525;42.648;23.368;2023-07-20T11:39:06;8.02;;;3.83;;
10945;SDS011;5525;42.648;23.368;2023-07-20T11:41:34;5.85;;;4.03;;
10945;SDS011;5525;42.648;23.368;2023-07-20T11:44:03;8.18;;;4.55;;
10945;SDS011;5525;42.648;23.368;2023-07-20T11:46:31;9.48;;;4.30;;
10945;SDS011;5525;42.648;23.368;2023-07-20T11:48:59;5.28;;;4.00;;
10945;SDS011;5525;42.648;23.368;2023-07-20T11:51:28;8.50;;;4.85;;
10945;SDS011;5525;42.648;23.368;2023-07-20T11:53:56;10.23;;;4.45;;
10945;SDS011;5525;42.648;23.368;2023-07-20T11:56:24;9.38;;;4.20;;
10945;SDS011;5525;42.648;23.368;2023-07-20T11:58:54;9.13;;;4.00;;
10945;SDS011;5525;42.648;23.368;2023-07-20T12:01:26;6.22;;;4.25;;
10945;SDS011;5525;42.648;23.368;2023-07-20T12:03:54;5.85;;;4.18;;
10945;SDS011;5525;42.648;23.368;2023-07-20T12:06:23;6.13;;;3.70;;
10945;SDS011;5525;42.648;23.368;2023-07-20T12:08:53;6.28;;;4.00;;
10945;SDS011;5525;42.648;23.368;2023-07-20T12:11:34;9.98;;;4.38;;
10945;SDS011;5525;42.648;23.368;2023-07-20T12:14:02;6.47;;;4.10;;
10945;SDS011;5525;42.648;23.368;2023-07-20T12:16:31;10.18;;;4.18;;
10945;SDS011;5525;42.648;23.368;2023-07-20T12:19:02;8.93;;;4.22;;
10945;SDS011;5525;42.648;23.368;2023-07-20T12:21:30;9.57;;;4.28;;
10945;SDS011;5525;42.648;23.368;2023-07-20T12:23:58;5.95;;;4.10;;
10945;SDS011;5525;42.648;23.368;2023-07-20T12:26:24;6.28;;;4.30;;
10945;SDS011;5525;42.648;23.368;2023-07-20T12:28:51;7.10;;;3.53;;
10945;SDS011;5525;42.648;23.368;2023-07-20T12:31:18;6.65;;;3.92;;
10945;SDS011;5525;42.648;23.368;2023-07-20T12:33:47;6.05;;;3.83;;
10945;SDS011;5525;42.648;23.368;2023-07-20T12:36:14;9.32;;;3.55;;
10945;SDS011;5525;42.648;23.368;2023-07-20T12:38:41;6.60;;;3.00;;
10945;SDS011;5525;42.648;23.368;2023-07-20T12:41:09;5.82;;;3.70;;
10945;SDS011;5525;42.648;23.368;2023-07-20T12:43:37;6.88;;;3.28;;
10945;SDS011;5525;42.648;23.368;2023-07-20T12:46:05;6.15;;;3.28;;
10945;SDS011;5525;42.648;23.368;2023-07-20T12:48:32;8.35;;;3.33;;
10945;SDS011;5525;42.648;23.368;2023-07-20T12:51:00;7.65;;;3.13;;
10945;SDS011;5525;42.648;23.368;2023-07-20T12:53:26;7.90;;;3.03;;
10945;SDS011;5525;42.648;23.368;2023-07-20T12:55:53;7.03;;;3.00;;
10945;SDS011;5525;42.648;23.368;2023-07-20T12:58:20;7.70;;;3.00;;
10945;SDS011;5525;42.648;23.368;2023-07-20T13:00:46;7.70;;;3.25;;
10945;SDS011;5525;42.648;23.368;2023-07-20T13:03:13;6.18;;;2.78;;
10945;SDS011;5525;42.648;23.368;2023-07-20T13:05:41;5.65;;;2.88;;
10945;SDS011;5525;42.648;23.368;2023-07-20T13:08:09;5.65;;;2.90;;
10945;SDS011;5525;42.648;23.368;2023-07-20T13:10:37;7.13;;;2.88;;
10945;SDS011;5525;42.648;23.368;2023-07-20T13:13:04;8.68;;;3.30;;
10945;SDS011;5525;42.648;23.368;2023-07-20T13:15:31;5.22;;;2.90;;
10945;SDS011;5525;42.648;23.368;2023-07-20T13:17:59;12.05;;;3.42;;
10945;SDS011;5525;42.648;23.368;2023-07-20T13:20:26;6.65;;;3.00;;
10945;SDS011;5525;42.648;23.368;2023-07-20T13:22:55;8.90;;;3.10;;
10945;SDS011;5525;42.648;23.368;2023-07-20T13:25:23;4.80;;;2.90;;
10945;SDS011;5525;42.648;23.368;2023-07-20T13:27:50;7.00;;;2.88;;
10945;SDS011;5525;42.648;23.368;2023-07-20T13:30:17;7.90;;;2.85;;
10945;SDS011;5525;42.648;23.368;2023-07-20T13:32:44;8.98;;;3.13;;
10945;SDS011;5525;42.648;23.368;2023-07-20T13:35:11;6.72;;;2.90;;
10945;SDS011;5525;42.648;23.368;2023-07-20T13:37:39;5.68;;;2.80;;
10945;SDS011;5525;42.648;23.368;2023-07-20T13:40:07;7.32;;;2.78;;
10945;SDS011;5525;42.648;23.368;2023-07-20T13:42:38;8.95;;;3.05;;
10945;SDS011;5525;42.648;23.368;2023-07-20T13:45:06;8.20;;;3.10;;
10945;SDS011;5525;42.648;23.368;2023-07-20T13:47:33;5.38;;;2.60;;
10945;SDS011;5525;42.648;23.368;2023-07-20T13:50:00;9.52;;;2.80;;
10945;SDS011;5525;42.648;23.368;2023-07-20T13:52:27;6.90;;;3.35;;
10945;SDS011;5525;42.648;23.368;2023-07-20T13:54:54;7.53;;;2.83;;
10945;SDS011;5525;42.648;23.368;2023-07-20T13:57:21;5.97;;;2.97;;
10945;SDS011;5525;42.648;23.368;2023-07-20T13:59:49;12.02;;;3.22;;
10945;SDS011;5525;42.648;23.368;2023-07-20T14:02:15;6.07;;;3.03;;
10945;SDS011;5525;42.648;23.368;2023-07-20T14:04:42;9.43;;;2.78;;
10945;SDS011;5525;42.648;23.368;2023-07-20T14:07:09;6.38;;;2.60;;
10945;SDS011;5525;42.648;23.368;2023-07-20T14:09:37;6.18;;;2.80;;
10945;SDS011;5525;42.648;23.368;2023-07-20T14:12:05;6.53;;;2.40;;
10945;SDS011;5525;42.648;23.368;2023-07-20T14:14:33;6.45;;;2.75;;
10945;SDS011;5525;42.648;23.368;2023-07-20T14:17:01;8.02;;;2.67;;
10945;SDS011;5525;42.648;23.368;2023-07-20T14:19:28;7.55;;;2.80;;
10945;SDS011;5525;42.648;23.368;2023-07-20T14:21:55;7.88;;;2.80;;
10945;SDS011;5525;42.648;23.368;2023-07-20T14:24:24;7.28;;;3.05;;
10945;SDS011;5525;42.648;23.368;2023-07-20T14:26:51;7.05;;;2.80;;
10945;SDS011;5525;42.648;23.368;2023-07-20T14:29:19;5.65;;;2.47;;
10945;SDS011;5525;42.648;23.368;2023-07-20T14:31:46;7.93;;;2.60;;
10945;SDS011;5525;42.648;23.368;2023-07-20T14:34:17;10.65;;;2.60;;
10945;SDS011;5525;42.648;23.368;2023-07-20T14:36:44;6.68;;;2.58;;
10945;SDS011;5525;42.648;23.368;2023-07-20T14:39:11;7.45;;;2.60;;
10945;SDS011;5525;42.648;23.368;2023-07-20T14:41:39;5.20;;;2.67;;
10945;SDS011;5525;42.648;23.368;2023-07-20T14:44:06;10.13;;;2.58;;
10945;SDS011;5525;42.648;23.368;2023-07-20T14:46:32;6.57;;;2.83;;
10945;SDS011;5525;42.648;23.368;2023-07-20T14:48:59;7.75;;;2.92;;
10945;SDS011;5525;42.648;23.368;2023-07-20T14:51:28;7.47;;;2.85;;
10945;SDS011;5525;42.648;23.368;2023-07-20T14:53:58;7.00;;;2.85;;
10945;SDS011;5525;42.648;23.368;2023-07-20T14:56:25;8.48;;;3.30;;
10945;SDS011;5525;42.648;23.368;2023-07-20T14:58:52;8.65;;;3.00;;